createdAt,value
2023-04-26T00:00:24.983Z,1.50
2023-04-26T00:02:51.838Z,1.50
2023-04-26T00:05:21.857Z,1.40
2023-04-26T00:07:50.408Z,1.40
2023-04-26T00:10:20.009Z,1.50
2023-04-26T00:12:46.669Z,1.50
2023-04-26T00:15:17.572Z,1.60
2023-04-26T00:17:44.431Z,1.50
2023-04-26T00:20:13.746Z,1.60
2023-04-26T00:22:40.592Z,1.70
2023-04-26T00:25:08.319Z,1.70
2023-04-26T00:27:35.014Z,1.70
2023-04-26T00:30:04.733Z,1.80
2023-04-26T00:32:33.161Z,1.80
2023-04-26T00:37:52.595Z,1.80
2023-04-26T00:40:21.598Z,1.70
2023-04-26T00:42:48.468Z,1.70
2023-04-26T00:45:18.490Z,1.80
2023-04-26T00:47:50.160Z,1.90
2023-04-26T00:50:17.036Z,2.00
2023-04-26T00:52:45.812Z,2.00
2023-04-26T00:55:16.425Z,2.00
2023-04-26T00:57:45.464Z,2.00
2023-04-26T01:00:12.696Z,2.00
2023-04-26T01:02:39.499Z,1.90
2023-04-26T01:05:06.753Z,1.80
2023-04-26T01:07:33.998Z,1.80
2023-04-26T01:10:00.790Z,1.80
2023-04-26T01:12:28.167Z,1.70
2023-04-26T01:14:55.686Z,1.60
2023-04-26T01:17:22.366Z,1.60
2023-04-26T01:19:50.053Z,1.50
2023-04-26T01:22:19.431Z,1.40
2023-04-26T01:24:50.416Z,1.30
2023-04-26T01:27:17.610Z,1.30
2023-04-26T01:29:44.315Z,1.30
2023-04-26T01:32:11.979Z,1.20
2023-04-26T01:34:38.672Z,1.00
2023-04-26T01:37:05.381Z,1.00
2023-04-26T01:39:31.982Z,0.90
2023-04-26T01:41:58.705Z,0.90
2023-04-26T01:44:25.382Z,0.80
2023-04-26T01:46:52.099Z,0.80
2023-04-26T01:49:18.861Z,0.70
2023-04-26T01:51:45.469Z,0.70
2023-04-26T01:54:12.266Z,0.60
2023-04-26T01:56:38.934Z,0.60
2023-04-26T01:59:05.804Z,0.50
2023-04-26T02:01:32.509Z,0.30
2023-04-26T02:03:59.243Z,0.00
2023-04-26T02:06:26.555Z,-0.10
2023-04-26T02:08:54.390Z,-0.30
2023-04-26T02:11:21.284Z,-0.30
2023-04-26T02:13:48.020Z,-0.40
2023-04-26T02:16:16.856Z,-0.50
2023-04-26T02:18:44.396Z,-0.60
2023-04-26T02:21:12.351Z,-0.70
2023-04-26T02:23:39.066Z,-0.80
2023-04-26T02:26:06.046Z,-0.80
2023-04-26T02:28:32.730Z,-0.80
2023-04-26T02:30:59.770Z,-0.80
2023-04-26T02:33:26.629Z,-0.90
2023-04-26T02:35:53.271Z,-1.00
2023-04-26T02:38:20.447Z,-0.90
2023-04-26T02:40:47.363Z,-0.90
2023-04-26T02:43:14.154Z,-0.80
2023-04-26T02:45:43.061Z,-0.80
2023-04-26T02:48:09.722Z,-0.90
2023-04-26T02:50:36.689Z,-1.00
2023-04-26T02:53:03.703Z,-1.00
2023-04-26T02:55:30.939Z,-1.00
2023-04-26T02:57:57.607Z,-1.10
2023-04-26T03:00:25.078Z,-1.10
2023-04-26T03:02:52.127Z,-1.10
2023-04-26T03:05:19.991Z,-1.10
2023-04-26T03:07:46.832Z,-1.10
2023-04-26T03:10:13.736Z,-1.00
2023-04-26T03:12:40.736Z,-0.90
2023-04-26T03:15:07.849Z,-0.90
2023-04-26T03:17:34.474Z,-0.90
2023-04-26T03:20:02.770Z,-0.90
2023-04-26T03:22:29.734Z,-0.90
2023-04-26T03:24:57.037Z,-0.90
2023-04-26T03:27:24.292Z,-0.90
2023-04-26T03:29:50.955Z,-0.90
2023-04-26T03:32:17.865Z,-0.90
2023-04-26T03:34:44.811Z,-1.00
2023-04-26T03:37:11.454Z,-1.10
2023-04-26T03:39:38.133Z,-1.20
2023-04-26T03:42:04.971Z,-1.30
2023-04-26T03:44:31.704Z,-1.40
2023-04-26T03:46:58.372Z,-1.40
2023-04-26T03:49:25.092Z,-1.40
2023-04-26T03:51:54.364Z,-1.40
2023-04-26T03:54:21.004Z,-1.50
2023-04-26T03:56:47.836Z,-1.40
2023-04-26T03:59:14.762Z,-1.40
2023-04-26T04:01:42.046Z,-1.50
2023-04-26T04:04:10.069Z,-1.40
2023-04-26T04:06:38.251Z,-1.40
2023-04-26T04:09:07.861Z,-1.40
2023-04-26T04:11:34.632Z,-1.30
2023-04-26T04:14:02.874Z,-1.40
2023-04-26T04:16:29.874Z,-1.40
2023-04-26T04:18:56.843Z,-1.30
2023-04-26T04:21:23.866Z,-1.30
2023-04-26T04:23:50.509Z,-1.30
2023-04-26T04:26:17.498Z,-1.30
2023-04-26T04:28:45.502Z,-1.30
2023-04-26T04:31:12.919Z,-1.40
2023-04-26T04:33:39.892Z,-1.40
2023-04-26T04:36:07.317Z,-1.50
2023-04-26T04:38:34.513Z,-1.40
2023-04-26T04:41:01.254Z,-1.30
2023-04-26T04:43:27.940Z,-1.20
2023-04-26T04:45:55.437Z,-1.10
2023-04-26T04:48:22.512Z,-1.00
2023-04-26T04:50:52.777Z,-1.00
2023-04-26T04:53:19.621Z,-1.00
2023-04-26T04:55:46.550Z,-0.80
2023-04-26T04:58:16.386Z,-0.60
2023-04-26T05:00:43.516Z,-0.50
2023-04-26T05:03:11.028Z,-0.40
2023-04-26T05:05:38.048Z,-0.40
2023-04-26T05:08:07.645Z,-0.30
2023-04-26T05:10:35.161Z,-0.20
2023-04-26T05:13:01.889Z,-0.10
2023-04-26T05:15:30.375Z,-0.10
2023-04-26T05:17:57.727Z,0.00
2023-04-26T05:20:24.505Z,0.20
2023-04-26T05:22:51.266Z,0.40
2023-04-26T05:25:19.248Z,0.50
2023-04-26T05:27:46.863Z,0.60
2023-04-26T05:30:13.912Z,0.80
2023-04-26T05:32:41.493Z,1.00
2023-04-26T05:35:08.956Z,1.30
2023-04-26T05:37:36.297Z,1.50
2023-04-26T05:40:04.671Z,1.80
2023-04-26T05:42:31.377Z,1.90
2023-04-26T05:44:59.084Z,2.40
2023-04-26T05:47:26.373Z,3.20
2023-04-26T05:49:53.278Z,4.20
2023-04-26T05:52:20.915Z,5.40
2023-04-26T05:54:47.598Z,6.40
2023-04-26T05:57:16.716Z,7.10
2023-04-26T05:59:45.322Z,7.70
2023-04-26T06:02:12.204Z,8.50
2023-04-26T06:04:39.932Z,9.10
2023-04-26T06:07:07.197Z,9.40
2023-04-26T06:09:35.232Z,9.70
2023-04-26T06:12:02.179Z,10.00
2023-04-26T06:14:30.722Z,10.10
2023-04-26T06:16:58.087Z,10.30
2023-04-26T06:19:27.640Z,11.00
2023-04-26T06:21:55.376Z,11.70
2023-04-26T06:24:25.164Z,12.30
2023-04-26T06:26:52.024Z,12.60
2023-04-26T06:29:18.745Z,12.90
2023-04-26T06:31:45.403Z,12.90
2023-04-26T06:34:12.110Z,12.10
2023-04-26T06:36:41.081Z,11.50
2023-04-26T06:39:08.025Z,11.30
2023-04-26T06:41:34.787Z,11.60
2023-04-26T06:44:01.533Z,11.80
2023-04-26T06:46:31.481Z,11.70
2023-04-26T06:48:58.146Z,11.90
2023-04-26T06:51:25.007Z,11.80
2023-04-26T06:53:52.732Z,12.20
2023-04-26T06:56:19.595Z,12.50
2023-04-26T06:59:06.956Z,12.90
2023-04-26T07:01:35.344Z,13.60
2023-04-26T07:04:04.378Z,14.00
2023-04-26T07:06:31.569Z,14.50
2023-04-26T07:09:02.825Z,14.60
2023-04-26T07:11:29.906Z,14.60
2023-04-26T07:13:57.177Z,14.20
2023-04-26T07:16:24.283Z,13.40
2023-04-26T07:18:52.957Z,12.80
2023-04-26T07:21:19.673Z,12.50
2023-04-26T07:23:47.675Z,12.50
2023-04-26T07:26:14.392Z,12.40
2023-04-26T07:28:41.098Z,12.60
2023-04-26T07:31:09.533Z,12.90
2023-04-26T07:33:36.989Z,13.10
2023-04-26T07:36:03.999Z,13.30
2023-04-26T07:38:30.770Z,13.00
2023-04-26T07:40:58.226Z,13.00
2023-04-26T07:43:25.872Z,12.40
2023-04-26T07:45:53.366Z,13.00
2023-04-26T07:48:22.971Z,13.40
2023-04-26T07:50:49.649Z,13.40
2023-04-26T07:53:16.324Z,13.40
2023-04-26T07:55:43.982Z,13.60
2023-04-26T07:58:14.615Z,14.00
2023-04-26T08:00:41.652Z,14.10
2023-04-26T08:03:08.597Z,14.00
2023-04-26T08:05:35.697Z,13.60
2023-04-26T08:08:02.813Z,13.10
2023-04-26T08:10:29.975Z,13.00
2023-04-26T08:12:57.540Z,12.80
2023-04-26T08:15:24.334Z,12.90
2023-04-26T08:17:53.300Z,12.80
2023-04-26T08:20:20.829Z,12.70
2023-04-26T08:22:48.300Z,13.30
2023-04-26T08:25:15.802Z,13.10
2023-04-26T08:27:44.750Z,13.50
2023-04-26T08:30:12.069Z,14.10
2023-04-26T08:32:38.891Z,14.70
2023-04-26T08:35:08.541Z,14.20
2023-04-26T08:37:38.502Z,13.90
2023-04-26T08:40:10.284Z,14.00
2023-04-26T08:42:44.291Z,14.60
2023-04-26T08:45:12.883Z,15.90
2023-04-26T08:47:49.287Z,16.70
2023-04-26T08:50:19.693Z,16.70
2023-04-26T08:52:48.588Z,16.80
2023-04-26T08:55:16.649Z,16.00
2023-04-26T08:57:46.562Z,16.30
2023-04-26T09:00:14.723Z,17.00
2023-04-26T09:02:43.002Z,16.40
2023-04-26T09:05:12.780Z,15.60
2023-04-26T09:07:45.998Z,14.80
2023-04-26T09:10:24.460Z,15.30
2023-04-26T09:12:55.646Z,14.90
2023-04-26T09:15:26.139Z,15.10
2023-04-26T09:17:53.330Z,15.30
2023-04-26T09:20:33.113Z,15.50
2023-04-26T09:23:08.356Z,15.10
2023-04-26T09:25:36.086Z,14.60
2023-04-26T09:28:03.867Z,15.30
2023-04-26T09:30:31.274Z,16.00
2023-04-26T09:33:09.195Z,17.00
2023-04-26T09:35:40.531Z,17.10
2023-04-26T09:38:13.574Z,17.50
2023-04-26T09:40:47.359Z,16.90
2023-04-26T09:43:19.289Z,16.50
2023-04-26T09:45:57.043Z,16.50
2023-04-26T09:48:35.465Z,17.00
2023-04-26T09:51:04.877Z,17.40
2023-04-26T09:53:34.665Z,17.20
2023-04-26T09:56:18.887Z,17.30
2023-04-26T09:58:57.882Z,16.90
2023-04-26T10:01:25.592Z,16.60
2023-04-26T10:03:53.169Z,16.40
2023-04-26T10:06:20.015Z,16.40
2023-04-26T10:08:46.971Z,16.30
2023-04-26T10:11:16.228Z,16.20
2023-04-26T10:13:44.738Z,16.00
2023-04-26T10:16:12.689Z,15.50
2023-04-26T10:18:39.505Z,15.40
2023-04-26T10:21:22.499Z,15.10
2023-04-26T10:23:51.307Z,15.20
2023-04-26T10:26:54.244Z,15.20
2023-04-26T10:29:22.496Z,16.10
2023-04-26T10:32:04.519Z,15.60
2023-04-26T10:34:34.248Z,15.80
2023-04-26T10:37:10.082Z,16.20
2023-04-26T10:39:37.101Z,16.30
2023-04-26T10:42:30.699Z,16.60
2023-04-26T10:45:00.904Z,15.60
2023-04-26T10:47:37.083Z,16.00
2023-04-26T10:50:13.608Z,15.80
2023-04-26T10:53:09.266Z,15.60
2023-04-26T10:55:43.379Z,15.40
2023-04-26T10:58:30.136Z,15.40
2023-04-26T11:01:08.822Z,16.30
2023-04-26T11:03:40.642Z,16.90
2023-04-26T11:06:12.239Z,17.10
2023-04-26T11:08:43.121Z,17.80
2023-04-26T11:11:15.478Z,17.40
2023-04-26T11:13:43.430Z,17.50
2023-04-26T11:16:15.137Z,17.40
2023-04-26T11:18:43.586Z,17.30
2023-04-26T11:21:11.262Z,17.80
2023-04-26T11:23:38.554Z,18.50
2023-04-26T11:26:08.345Z,19.30
2023-04-26T11:28:38.161Z,19.70
2023-04-26T11:31:09.890Z,19.90
2023-04-26T11:33:36.952Z,19.40
2023-04-26T11:36:04.517Z,18.80
2023-04-26T11:38:31.279Z,18.40
2023-04-26T11:40:59.467Z,18.10
2023-04-26T11:43:32.329Z,18.30
2023-04-26T11:46:01.416Z,17.50
2023-04-26T11:48:30.141Z,16.90
2023-04-26T11:50:59.328Z,16.00
2023-04-26T11:53:43.800Z,15.50
2023-04-26T11:56:18.047Z,15.20
2023-04-26T11:58:52.705Z,15.40
2023-04-26T12:01:24.954Z,16.20
2023-04-26T12:03:54.424Z,16.40
2023-04-26T12:06:30.986Z,16.00
2023-04-26T12:08:57.675Z,15.20
2023-04-26T12:11:24.389Z,16.30
2023-04-26T12:13:51.171Z,16.90
2023-04-26T12:16:26.314Z,17.40
2023-04-26T12:18:55.453Z,18.10
2023-04-26T12:21:22.585Z,18.30
2023-04-26T12:23:52.437Z,18.60
2023-04-26T12:26:20.375Z,18.70
2023-04-26T12:28:51.829Z,18.90
2023-04-26T12:31:20.436Z,19.60
2023-04-26T12:33:48.028Z,19.20
2023-04-26T12:36:26.669Z,19.70
2023-04-26T12:38:53.611Z,20.10
2023-04-26T12:41:20.657Z,19.90
2023-04-26T12:43:49.867Z,19.90
2023-04-26T12:46:19.230Z,19.40
2023-04-26T12:48:46.629Z,19.20
2023-04-26T12:51:13.278Z,19.40
2023-04-26T12:53:39.976Z,19.00
2023-04-26T12:56:07.012Z,18.80
2023-04-26T12:58:40.614Z,18.90
2023-04-26T13:01:07.384Z,19.40
2023-04-26T13:03:34.242Z,19.00
2023-04-26T13:06:01.511Z,17.90
2023-04-26T13:08:28.895Z,18.40
2023-04-26T13:10:56.879Z,19.20
2023-04-26T13:13:35.918Z,19.40
2023-04-26T13:16:11.139Z,19.50
2023-04-26T13:18:38.002Z,19.50
2023-04-26T13:21:05.030Z,19.60
2023-04-26T13:23:36.289Z,19.30
2023-04-26T13:26:02.939Z,19.80
2023-04-26T13:28:29.659Z,20.40
2023-04-26T13:30:56.589Z,19.50
2023-04-26T13:33:27.350Z,18.40
2023-04-26T13:35:56.142Z,18.20
2023-04-26T13:38:26.158Z,17.70
2023-04-26T13:40:53.882Z,18.20
2023-04-26T13:43:20.590Z,18.50
2023-04-26T13:45:49.736Z,17.90
2023-04-26T13:48:16.641Z,17.70
2023-04-26T13:50:43.510Z,18.10
2023-04-26T13:53:10.197Z,17.90
2023-04-26T13:55:37.360Z,17.80
2023-04-26T13:58:04.216Z,17.60
2023-04-26T14:00:30.975Z,18.00
2023-04-26T14:02:57.840Z,17.90
2023-04-26T14:05:25.167Z,18.00
2023-04-26T14:07:54.943Z,17.90
2023-04-26T14:10:26.279Z,17.90
2023-04-26T14:12:52.952Z,17.20
2023-04-26T14:15:22.715Z,16.80
2023-04-26T14:17:50.973Z,16.90
2023-04-26T14:20:23.755Z,16.70
2023-04-26T14:22:50.913Z,16.80
2023-04-26T14:25:20.289Z,16.80
2023-04-26T14:27:47.382Z,16.90
2023-04-26T14:30:14.421Z,17.20
2023-04-26T14:32:43.589Z,17.20
2023-04-26T14:35:14.474Z,17.10
2023-04-26T14:37:41.142Z,16.60
2023-04-26T14:40:08.456Z,16.00
2023-04-26T14:42:35.816Z,16.20
2023-04-26T14:45:05.568Z,16.50
2023-04-26T14:47:32.188Z,16.80
2023-04-26T14:50:01.846Z,16.70
2023-04-26T14:52:29.219Z,17.10
2023-04-26T14:54:58.086Z,17.60
2023-04-26T14:57:27.936Z,18.10
2023-04-26T14:59:59.520Z,17.90
2023-04-26T15:02:30.609Z,18.30
2023-04-26T15:04:57.722Z,19.80
2023-04-26T15:07:32.145Z,20.80
2023-04-26T15:10:00.088Z,20.40
2023-04-26T15:12:28.914Z,20.20
2023-04-26T15:14:58.838Z,20.20
2023-04-26T15:17:31.289Z,19.80
2023-04-26T15:19:57.912Z,19.40
2023-04-26T15:22:25.989Z,18.80
2023-04-26T15:24:55.405Z,19.30
2023-04-26T15:27:29.539Z,19.00
2023-04-26T15:29:57.020Z,19.00
2023-04-26T15:32:23.730Z,19.80
2023-04-26T15:34:52.589Z,20.20
2023-04-26T15:37:19.248Z,20.80
2023-04-26T15:39:46.539Z,19.90
2023-04-26T15:42:13.509Z,21.10
2023-04-26T15:44:41.859Z,21.50
2023-04-26T15:47:08.474Z,21.50
2023-04-26T15:49:37.359Z,21.60
2023-04-26T15:52:07.778Z,21.70
2023-04-26T15:54:39.190Z,22.70
2023-04-26T15:57:05.859Z,21.50
2023-04-26T15:59:32.719Z,19.80
2023-04-26T16:02:02.345Z,18.50
2023-04-26T16:04:29.338Z,19.70
2023-04-26T16:06:56.222Z,20.00
2023-04-26T16:09:27.036Z,19.90
2023-04-26T16:11:56.366Z,18.90
2023-04-26T16:14:23.036Z,17.90
2023-04-26T16:16:50.027Z,16.00
2023-04-26T16:19:18.595Z,15.20
2023-04-26T16:21:51.301Z,14.90
2023-04-26T16:24:19.498Z,14.20
2023-04-26T16:26:46.403Z,13.80
2023-04-26T16:29:17.010Z,13.60
2023-04-26T16:31:48.991Z,13.70
2023-04-26T16:34:17.231Z,14.40
2023-04-26T16:36:46.451Z,14.70
2023-04-26T16:42:05.279Z,14.90
2023-04-26T16:44:34.892Z,14.90
2023-04-26T16:47:01.776Z,15.00
2023-04-26T16:49:33.671Z,15.80
2023-04-26T16:52:01.056Z,16.10
2023-04-26T16:54:28.744Z,16.10
2023-04-26T16:57:00.494Z,17.00
2023-04-26T16:59:31.709Z,17.40
2023-04-26T17:01:59.069Z,18.30
2023-04-26T17:04:26.725Z,18.00
2023-04-26T17:06:55.192Z,17.50
2023-04-26T17:09:21.872Z,17.90
2023-04-26T17:11:55.683Z,17.70
2023-04-26T17:14:28.618Z,17.20
2023-04-26T17:16:55.296Z,16.90
2023-04-26T17:19:23.572Z,16.70
2023-04-26T17:21:50.295Z,16.20
2023-04-26T17:24:17.725Z,15.90
2023-04-26T17:26:46.181Z,15.40
2023-04-26T17:29:12.913Z,15.20
2023-04-26T17:31:42.536Z,14.90
2023-04-26T17:34:09.457Z,14.30
2023-04-26T17:39:31.745Z,13.40
2023-04-26T17:41:58.430Z,13.20
2023-04-26T17:44:25.088Z,13.00
2023-04-26T17:46:51.795Z,12.80
2023-04-26T17:49:22.186Z,12.70
2023-04-26T17:51:48.818Z,12.60
2023-04-26T17:54:15.694Z,12.70
2023-04-26T17:56:47.434Z,12.60
2023-04-26T17:59:14.096Z,12.50
2023-04-26T18:01:44.507Z,12.30
2023-04-26T18:04:11.681Z,12.20
2023-04-26T18:06:40.108Z,12.00
2023-04-26T18:09:07.133Z,11.80
2023-04-26T18:11:40.294Z,11.70
2023-04-26T18:14:07.106Z,11.50
2023-04-26T18:16:38.994Z,11.40
2023-04-26T18:19:05.797Z,11.20
2023-04-26T18:21:35.684Z,11.00
2023-04-26T18:24:02.874Z,10.90
2023-04-26T18:26:29.802Z,10.70
2023-04-26T18:28:56.938Z,10.60
2023-04-26T18:31:24.834Z,10.40
2023-04-26T18:36:46.265Z,10.10
2023-04-26T18:39:16.575Z,9.90
2023-04-26T18:41:43.513Z,9.80
2023-04-26T18:44:17.202Z,9.60
2023-04-26T18:46:44.752Z,9.60
2023-04-26T18:52:02.996Z,9.30
2023-04-26T18:54:31.215Z,9.20
2023-04-26T18:56:58.111Z,9.30
2023-04-26T18:59:27.911Z,9.30
2023-04-26T19:01:54.853Z,9.20
2023-04-26T19:04:24.560Z,9.10
2023-04-26T19:06:51.420Z,9.00
2023-04-26T19:09:18.628Z,8.90
2023-04-26T19:11:45.367Z,8.70
2023-04-26T19:17:04.637Z,8.40
2023-04-26T19:19:33.823Z,8.20
2023-04-26T19:22:02.185Z,8.00
2023-04-26T19:24:28.984Z,7.80
2023-04-26T19:26:58.262Z,7.70
2023-04-26T19:32:17.174Z,7.40
2023-04-26T19:34:44.040Z,7.30
2023-04-26T19:37:11.929Z,7.10
2023-04-26T19:39:38.592Z,7.10
2023-04-26T19:42:11.735Z,6.90
2023-04-26T19:44:39.832Z,6.90
2023-04-26T19:47:06.761Z,6.80
2023-04-26T19:49:34.741Z,6.70
2023-04-26T19:52:01.817Z,6.70
2023-04-26T19:54:30.693Z,6.70
2023-04-26T19:56:57.635Z,6.60
2023-04-26T19:59:24.361Z,6.50
2023-04-26T20:01:53.783Z,6.40
2023-04-26T20:04:21.299Z,6.30
2023-04-26T20:06:50.801Z,6.20
2023-04-26T20:09:23.743Z,6.10
2023-04-26T20:11:50.471Z,6.00
2023-04-26T20:14:19.638Z,5.90
2023-04-26T20:16:46.388Z,6.00
2023-04-26T20:22:09.750Z,5.90
2023-04-26T20:24:36.830Z,5.80
2023-04-26T20:27:04.052Z,5.70
2023-04-26T20:29:34.136Z,5.50
2023-04-26T20:32:00.851Z,5.50
2023-04-26T20:34:32.295Z,5.50
2023-04-26T20:39:51.673Z,5.40
2023-04-26T20:42:20.036Z,5.30
2023-04-26T20:44:53.063Z,5.20
2023-04-26T20:47:22.132Z,5.10
2023-04-26T20:49:51.005Z,5.00
2023-04-26T20:52:27.283Z,4.90
2023-04-26T20:54:56.211Z,4.80
2023-04-26T20:57:29.966Z,4.90
2023-04-26T20:59:56.647Z,4.90
2023-04-26T21:02:23.517Z,4.80
2023-04-26T21:04:50.393Z,4.70
2023-04-26T21:07:17.152Z,4.60
2023-04-26T21:09:43.852Z,4.50
2023-04-26T21:12:11.098Z,4.50
2023-04-26T21:14:37.774Z,4.40
2023-04-26T21:17:05.791Z,4.30
2023-04-26T21:22:25.966Z,4.30
2023-04-26T21:24:53.016Z,4.30
2023-04-26T21:27:19.758Z,4.30
2023-04-26T21:29:50.743Z,4.30
2023-04-26T21:32:17.460Z,4.20
2023-04-26T21:34:44.152Z,4.20
2023-04-26T21:37:10.931Z,4.10
2023-04-26T21:39:37.847Z,4.20
2023-04-26T21:42:08.664Z,4.10
2023-04-26T21:44:35.590Z,4.10
2023-04-26T21:47:09.073Z,4.10
2023-04-26T21:49:35.934Z,4.20
2023-04-26T21:52:07.884Z,4.30
2023-04-26T21:54:41.032Z,4.50
2023-04-26T21:57:12.249Z,4.60
2023-04-26T21:59:44.228Z,4.70
2023-04-26T22:02:12.085Z,4.80
2023-04-26T22:07:34.674Z,4.90
2023-04-26T22:10:06.377Z,4.70
2023-04-26T22:12:32.984Z,4.60
2023-04-26T22:15:00.217Z,4.70
2023-04-26T22:17:27.110Z,4.80
2023-04-26T22:19:56.815Z,4.90
2023-04-26T22:22:28.341Z,5.00
2023-04-26T22:27:49.808Z,5.20
2023-04-26T22:30:25.922Z,5.30
2023-04-26T22:32:54.672Z,5.20
2023-04-26T22:35:29.052Z,5.00
2023-04-26T22:37:58.332Z,5.00
2023-04-26T22:40:28.209Z,4.90
2023-04-26T22:42:54.844Z,4.90
2023-04-26T22:45:25.008Z,4.80
2023-04-26T22:47:51.694Z,4.80
2023-04-26T22:50:18.371Z,4.90
2023-04-26T22:52:47.321Z,4.90
2023-04-26T22:55:14.114Z,5.00
2023-04-26T22:57:42.687Z,5.10
2023-04-26T23:00:14.714Z,5.20
2023-04-26T23:02:41.941Z,5.40
2023-04-26T23:05:10.225Z,5.50
2023-04-26T23:07:39.612Z,5.60
2023-04-26T23:10:06.805Z,5.60
2023-04-26T23:12:33.542Z,5.70
2023-04-26T23:15:01.733Z,5.70
2023-04-26T23:17:28.565Z,5.80
2023-04-26T23:19:55.250Z,5.90
2023-04-26T23:22:21.972Z,6.00
2023-04-26T23:24:48.686Z,6.00
2023-04-26T23:27:15.383Z,6.00
2023-04-26T23:29:42.085Z,6.00
2023-04-26T23:32:08.949Z,6.00
2023-04-26T23:34:38.380Z,6.00
2023-04-26T23:37:07.135Z,6.00
2023-04-26T23:39:39.958Z,5.90
2023-04-26T23:42:06.710Z,5.90
2023-04-26T23:44:39.417Z,5.90
2023-04-26T23:47:06.368Z,5.90
2023-04-26T23:49:33.809Z,5.80
2023-04-26T23:52:03.623Z,5.80
2023-04-26T23:54:31.254Z,5.70
2023-04-26T23:56:57.931Z,5.70
2023-04-26T23:59:24.827Z,5.60
